This is the latest recevied weather packets stored in our database for station/object W5HKR. If no packets are shown the sender has not sent any weather packets the latest 10 day(s).
| Time | Temp. | Humidity | Pressure | Rain* | Wind** | Luminosity | Snow |
|---|---|---|---|---|---|---|---|
| 1777414237 | 33.89° C | 56% | 981.7 hPa | 0 mm | - | - | - |
| 1777413158 | 18.33° C | 91% | 990.6 hPa | 0 mm | - | - | - |
| 1777412077 | 33.89° C | 58% | 982.1 hPa | 0 mm | - | - | - |
| 1777411407 | 33.89° C | 56% | 982.1 hPa | 0 mm | - | - | - |
| 1777410998 | 33.89° C | 57% | 982.2 hPa | 0 mm | - | - | - |
| 1777410807 | 18.33° C | 91% | 990.6 hPa | 0 mm | - | - | - |
| 1777408407 | 33.33° C | 61% | 983 hPa | 0 mm | - | - | - |
| 1777406907 | 18.33° C | 91% | 990.6 hPa | 0 mm | - | - | - |
| 1777406307 | 18.33° C | 91% | 990.6 hPa | 0 mm | - | - | - |
| 1777405107 | 32.78° C | 66% | 983.4 hPa | 0 mm | - | - | - |
| 1777403906 | 32.22° C | 68% | 983.7 hPa | 0 mm | - | - | - |
| 1777403606 | 18.33° C | 91% | 990.6 hPa | 0 mm | - | - | - |
| 1777403437 | 18.33° C | 91% | 990.6 hPa | 0 mm | - | - | - |
| 1777403007 | 18.33° C | 91% | 990.6 hPa | 0 mm | - | - | - |
| 1777401808 | 18.33° C | 91% | 990.6 hPa | 0 mm | - | - | - |
| 1777397307 | 27.78° C | 80% | 984.6 hPa | 0 mm | - | - | - |
| 1777395878 | 27.22° C | 81% | 984.6 hPa | 0 mm | - | - | - |
| 1777394798 | 27.22° C | 81% | 984.8 hPa | 0 mm | - | - | - |
| 1777393706 | 18.33° C | 91% | 990.6 hPa | 0 mm | - | - | - |
| 1777390707 | 18.33° C | 91% | 990.6 hPa | 0 mm | - | - | - |
| 1777390478 | 18.33° C | 91% | 990.6 hPa | 0 mm | - | - | - |
| 1777390407 | 26.11° C | 86% | 984.5 hPa | 0 mm | - | - | - |
| 1777388006 | 25° C | 89% | 984.6 hPa | 0 mm | - | - | - |
| 1777387107 | 25° C | 90% | 984.6 hPa | 0 mm | - | - | - |
| 1777386806 | 25° C | 91% | 984.4 hPa | 0 mm | - | - | - |
* Rain latest hour (hover to see other rain measurements)
** Current wind speed in m/s (hover to see current wind gust speed)